Time;durP1;ratioP1;P1;durP2;ratioP2;P2;SDS_P1;SDS_P2;PMS_P1;PMS_P2;Temp;Humidity;BMP_temperature;BMP_pressure;BME280_temperature;BME280_humidity;BME280_pressure;Samples;Min_cycle;Max_cycle;Signal;HPM_P1;HPM_P2
2020/12/29 00:01:40;;;;;;;2.95;1.65;;;0.50;99.90;;;;;;5038027;28;20080;-69
2020/12/29 00:04:11;;;;;;;1.50;1.40;;;0.40;99.90;;;;;;5035674;28;20108;-69
2020/12/29 00:06:47;;;;;;;2.40;1.42;;;0.10;99.90;;;;;;5040647;28;20522;-69
2020/12/29 00:09:13;;;;;;;2.60;1.55;;;-0.20;99.90;;;;;;5041466;28;20525;-69
2020/12/29 00:11:38;;;;;;;2.15;1.48;;;-0.10;99.90;;;;;;5042603;28;20073;-70
2020/12/29 00:14:04;;;;;;;2.45;1.30;;;0.10;99.90;;;;;;5042615;28;20112;-69
2020/12/29 00:16:30;;;;;;;2.08;1.27;;;0.20;99.90;;;;;;5047538;28;20100;-68
2020/12/29 00:18:55;;;;;;;1.30;0.70;;;0.20;99.90;;;;;;5043692;28;20116;-69
2020/12/29 00:21:21;;;;;;;1.70;1.00;;;0.30;99.90;;;;;;5042401;28;20085;-69
2020/12/29 00:23:47;;;;;;;1.17;0.90;;;0.60;99.90;;;;;;5030758;28;20102;-70
2020/12/29 00:26:13;;;;;;;2.30;1.20;;;0.60;99.90;;;;;;5036292;28;20078;-69
2020/12/29 00:28:39;;;;;;;2.28;1.70;;;0.50;99.90;;;;;;5031662;28;20105;-69
2020/12/29 00:31:05;;;;;;;1.73;1.17;;;0.60;99.90;;;;;;5028805;28;20123;-70
2020/12/29 00:33:30;;;;;;;1.13;0.88;;;0.50;99.90;;;;;;5030752;28;20100;-69
2020/12/29 00:35:56;;;;;;;1.77;1.08;;;0.50;99.90;;;;;;5028686;28;20096;-69
2020/12/29 00:38:21;;;;;;;1.50;0.93;;;0.40;99.90;;;;;;5045410;28;20612;-69
2020/12/29 00:40:47;;;;;;;1.15;0.85;;;0.50;99.90;;;;;;5030001;28;20458;-69
2020/12/29 00:43:12;;;;;;;1.20;0.85;;;0.50;99.90;;;;;;5036616;28;20109;-69
2020/12/29 00:45:38;;;;;;;2.15;1.27;;;0.60;99.90;;;;;;5030890;28;20543;-69
2020/12/29 00:48:03;;;;;;;2.17;0.93;;;0.80;99.90;;;;;;5029291;28;20434;-69
2020/12/29 00:50:29;;;;;;;1.15;0.82;;;0.90;99.90;;;;;;5028912;28;20788;-69
2020/12/29 00:52:54;;;;;;;0.93;0.70;;;0.90;99.90;;;;;;5035799;28;20108;-69
2020/12/29 00:55:20;;;;;;;1.38;0.90;;;0.70;99.90;;;;;;5028039;28;20474;-69
2020/12/29 00:57:45;;;;;;;1.10;1.00;;;0.80;99.90;;;;;;5036826;28;20567;-69
2020/12/29 01:00:11;;;;;;;1.50;0.85;;;0.70;99.90;;;;;;5034750;28;20078;-69
2020/12/29 01:02:37;;;;;;;1.13;0.82;;;0.70;99.90;;;;;;5027839;28;20074;-69
2020/12/29 01:05:02;;;;;;;0.88;0.80;;;0.70;99.90;;;;;;5033605;28;20105;-69
2020/12/29 01:07:28;;;;;;;1.27;0.90;;;0.70;99.90;;;;;;5030474;28;20168;-69
2020/12/29 01:09:53;;;;;;;1.23;0.90;;;0.60;99.90;;;;;;5028484;28;20547;-69
2020/12/29 01:12:19;;;;;;;1.35;0.80;;;0.70;99.90;;;;;;5029318;28;20116;-69
2020/12/29 01:14:44;;;;;;;1.13;0.70;;;0.70;99.90;;;;;;5029685;28;20163;-69
2020/12/29 01:17:13;;;;;;;2.28;0.95;;;0.80;99.90;;;;;;5032052;28;20078;-69
2020/12/29 01:19:38;;;;;;;0.93;0.65;;;0.80;99.90;;;;;;5028771;28;20419;-69
2020/12/29 01:22:04;;;;;;;1.05;0.80;;;0.80;99.90;;;;;;5027758;28;20081;-69
2020/12/29 01:24:30;;;;;;;3.05;0.80;;;0.80;99.90;;;;;;5027104;28;20113;-69
2020/12/29 01:26:58;;;;;;;0.90;0.60;;;0.90;99.90;;;;;;5028058;28;20078;-69
2020/12/29 01:29:24;;;;;;;1.00;0.90;;;0.90;99.90;;;;;;5030171;28;20074;-69
2020/12/29 01:31:49;;;;;;;0.77;0.77;;;0.90;99.90;;;;;;5029327;28;20533;-69
2020/12/29 01:34:15;;;;;;;1.08;0.90;;;0.90;99.90;;;;;;5030082;28;20566;-69
2020/12/29 01:36:41;;;;;;;1.48;0.98;;;0.80;99.90;;;;;;5036282;28;20088;-69
2020/12/29 01:39:06;;;;;;;1.85;1.00;;;0.90;99.90;;;;;;5030642;28;20081;-69
2020/12/29 01:41:35;;;;;;;1.23;0.95;;;0.90;99.90;;;;;;5032883;28;20225;-69
2020/12/29 01:44:18;;;;;;;1.10;0.85;;;0.90;99.90;;;;;;5028183;28;20101;-69
2020/12/29 01:46:49;;;;;;;1.13;0.85;;;0.90;99.90;;;;;;5027932;28;20100;-69
2020/12/29 01:49:17;;;;;;;1.25;0.73;;;0.90;99.90;;;;;;5032389;28;20073;-69
2020/12/29 01:51:43;;;;;;;1.02;0.85;;;0.90;99.90;;;;;;5030378;28;20077;-69
2020/12/29 01:54:09;;;;;;;1.13;1.00;;;0.90;99.90;;;;;;5032542;28;20100;-69
2020/12/29 01:56:39;;;;;;;1.25;0.90;;;0.90;99.90;;;;;;5030029;28;20453;-69
2020/12/29 01:59:11;;;;;;;1.00;0.80;;;0.80;99.90;;;;;;5040031;28;20093;-69
2020/12/29 02:01:42;;;;;;;1.70;1.00;;;0.90;99.90;;;;;;5029892;28;20081;-69
2020/12/29 02:04:09;;;;;;;1.73;0.98;;;0.90;99.90;;;;;;5027367;28;20163;-69
2020/12/29 02:06:35;;;;;;;0.98;0.73;;;0.90;99.90;;;;;;5028093;28;20097;-69
2020/12/29 02:09:03;;;;;;;1.45;0.80;;;0.90;99.90;;;;;;5027087;28;20129;-69
2020/12/29 02:11:28;;;;;;;1.45;0.82;;;0.80;99.90;;;;;;5027624;28;20070;-69
2020/12/29 02:13:54;;;;;;;1.10;0.80;;;0.80;99.90;;;;;;5041400;28;20093;-69
2020/12/29 02:16:20;;;;;;;0.80;0.60;;;0.80;99.90;;;;;;5025151;28;20078;-69
2020/12/29 02:18:45;;;;;;;1.10;0.70;;;0.80;99.90;;;;;;5032195;28;20080;-69
2020/12/29 02:21:11;;;;;;;1.13;0.90;;;0.80;99.90;;;;;;5034925;28;20085;-69
2020/12/29 02:23:37;;;;;;;0.82;0.65;;;0.80;99.90;;;;;;5030019;28;20197;-69
2020/12/29 02:26:03;;;;;;;1.60;0.80;;;0.90;99.90;;;;;;5026647;28;20065;-69
2020/12/29 02:28:28;;;;;;;1.05;0.75;;;0.90;99.90;;;;;;5029508;28;20443;-69
2020/12/29 02:30:54;;;;;;;0.88;0.82;;;0.90;99.90;;;;;;5027327;28;20085;-69
2020/12/29 02:33:20;;;;;;;0.73;0.65;;;0.90;99.90;;;;;;5030839;28;20204;-69
2020/12/29 02:35:45;;;;;;;1.60;0.50;;;0.90;99.90;;;;;;5033726;28;20082;-69
2020/12/29 02:38:11;;;;;;;1.15;0.77;;;1.00;99.90;;;;;;5030652;28;20093;-69
2020/12/29 02:40:36;;;;;;;1.13;0.50;;;1.00;99.90;;;;;;5028479;28;20118;-69
2020/12/29 02:43:02;;;;;;;0.73;0.70;;;1.00;99.90;;;;;;5042535;28;20115;-69
2020/12/29 02:45:28;;;;;;;0.73;0.60;;;1.10;99.90;;;;;;5031759;28;20077;-69
2020/12/29 02:47:55;;;;;;;0.68;0.50;;;1.20;99.90;;;;;;5035916;28;20093;-69
2020/12/29 02:50:20;;;;;;;0.60;0.40;;;1.20;99.90;;;;;;5026849;28;20165;-69
2020/12/29 02:52:46;;;;;;;1.45;0.30;;;1.20;99.90;;;;;;5034830;28;20161;-69
2020/12/29 02:55:12;;;;;;;1.73;0.47;;;1.20;99.90;;;;;;5035086;28;20113;-69
2020/12/29 02:57:37;;;;;;;0.70;0.55;;;1.20;99.90;;;;;;5026513;28;20140;-69
2020/12/29 03:00:04;;;;;;;0.85;0.43;;;1.20;99.90;;;;;;5027525;28;20096;-69
2020/12/29 03:02:30;;;;;;;0.40;0.40;;;1.20;99.90;;;;;;5026682;28;20074;-69
2020/12/29 03:04:58;;;;;;;0.85;0.40;;;1.30;99.90;;;;;;5026957;28;20093;-69
2020/12/29 03:07:24;;;;;;;0.50;0.30;;;1.30;99.90;;;;;;5028198;28;20096;-69
2020/12/29 03:09:49;;;;;;;0.45;0.45;;;1.30;99.90;;;;;;5029049;28;20546;-69
2020/12/29 03:12:15;;;;;;;0.57;0.50;;;1.30;99.90;;;;;;5028814;28;20078;-69
2020/12/29 03:14:40;;;;;;;0.63;0.50;;;1.30;99.90;;;;;;5026538;28;20096;-69
2020/12/29 03:17:06;;;;;;;0.50;0.40;;;1.40;99.90;;;;;;5027536;28;20086;-69
2020/12/29 03:19:32;;;;;;;1.83;0.60;;;1.40;99.90;;;;;;5026797;28;20487;-69
2020/12/29 03:21:57;;;;;;;0.40;0.40;;;1.40;99.90;;;;;;5031893;28;20082;-69
2020/12/29 03:24:23;;;;;;;1.13;0.52;;;1.50;99.90;;;;;;5026028;28;20094;-69
2020/12/29 03:26:48;;;;;;;0.90;0.70;;;1.50;99.90;;;;;;5029086;28;20074;-69
2020/12/29 03:29:14;;;;;;;0.80;0.80;;;1.50;99.90;;;;;;5027378;28;20097;-69
2020/12/29 03:31:43;;;;;;;3.40;0.90;;;1.80;99.90;;;;;;5027787;28;20082;-69
2020/12/29 03:34:10;;;;;;;1.38;1.00;;;1.90;99.90;;;;;;5027036;28;20112;-69
2020/12/29 03:36:36;;;;;;;1.77;1.20;;;2.10;99.90;;;;;;5030672;28;20082;-69
2020/12/29 03:39:03;;;;;;;1.58;0.80;;;2.10;99.90;;;;;;5026857;28;20093;-69
2020/12/29 03:41:28;;;;;;;1.88;1.25;;;2.20;99.90;;;;;;5030111;28;20442;-69
2020/12/29 03:43:54;;;;;;;2.03;1.00;;;2.30;99.90;;;;;;5033155;28;20101;-69
2020/12/29 03:46:19;;;;;;;1.08;0.90;;;2.00;99.90;;;;;;5040545;28;20206;-69
2020/12/29 03:48:45;;;;;;;1.63;1.13;;;2.10;99.90;;;;;;5031703;28;20143;-69
2020/12/29 03:51:10;;;;;;;0.75;0.65;;;1.90;99.90;;;;;;5033372;28;20184;-69
2020/12/29 03:53:36;;;;;;;1.63;1.38;;;1.60;99.90;;;;;;5033740;28;20108;-69
2020/12/29 03:56:01;;;;;;;1.90;1.27;;;1.40;99.90;;;;;;5029014;28;20608;-69
2020/12/29 03:58:27;;;;;;;1.88;0.85;;;1.20;99.90;;;;;;5030253;28;20082;-69
2020/12/29 04:00:52;;;;;;;1.67;0.85;;;1.10;99.90;;;;;;5034254;28;20155;-69
2020/12/29 04:03:18;;;;;;;0.85;0.50;;;1.20;99.90;;;;;;5031940;28;22058;-69
2020/12/29 04:05:44;;;;;;;0.95;0.70;;;1.40;99.90;;;;;;5030350;28;20623;-69
2020/12/29 04:08:09;;;;;;;0.70;0.50;;;1.60;99.90;;;;;;5034898;28;20077;-69
2020/12/29 04:10:35;;;;;;;0.60;0.60;;;1.60;99.90;;;;;;5031522;28;20078;-69
2020/12/29 04:13:00;;;;;;;1.00;0.85;;;1.60;99.90;;;;;;5030602;28;20090;-69
2020/12/29 04:15:26;;;;;;;1.45;1.10;;;1.40;99.90;;;;;;5031979;28;20082;-69
2020/12/29 04:17:51;;;;;;;1.52;0.98;;;1.20;99.90;;;;;;5028836;28;20073;-69
2020/12/29 04:20:17;;;;;;;1.15;0.73;;;1.20;99.90;;;;;;5028869;28;20085;-69
2020/12/29 04:22:43;;;;;;;2.25;0.88;;;1.40;99.90;;;;;;5030233;28;20923;-69
2020/12/29 04:25:10;;;;;;;1.77;0.60;;;1.60;99.90;;;;;;5033442;28;20678;-69
2020/12/29 04:27:36;;;;;;;0.90;0.60;;;1.60;99.90;;;;;;5032686;28;20173;-69
2020/12/29 04:30:06;;;;;;;1.23;0.90;;;1.20;99.90;;;;;;5032558;28;20077;-69
2020/12/29 04:32:31;;;;;;;0.52;0.52;;;1.40;99.90;;;;;;5033877;28;20106;-69
2020/12/29 04:34:57;;;;;;;1.02;0.90;;;1.40;99.90;;;;;;5039015;28;20129;-69
2020/12/29 04:37:23;;;;;;;1.00;0.77;;;1.10;99.90;;;;;;5033586;28;20089;-69
2020/12/29 04:39:48;;;;;;;0.70;0.65;;;0.90;99.90;;;;;;5030867;28;20697;-69
2020/12/29 04:42:15;;;;;;;1.55;0.85;;;0.70;99.90;;;;;;5033133;28;20438;-70
2020/12/29 04:44:42;;;;;;;1.73;0.90;;;0.60;99.90;;;;;;5033836;28;20128;-69
2020/12/29 04:47:10;;;;;;;1.00;0.80;;;0.50;99.90;;;;;;5028837;28;20085;-69
2020/12/29 04:49:36;;;;;;;1.83;0.50;;;0.60;99.90;;;;;;5028956;28;20078;-69
2020/12/29 04:52:04;;;;;;;1.05;0.60;;;0.50;99.90;;;;;;5029004;28;20078;-69
2020/12/29 04:54:35;;;;;;;0.70;0.70;;;0.60;99.90;;;;;;5032251;28;20173;-70
2020/12/29 04:57:02;;;;;;;2.25;0.80;;;0.80;99.90;;;;;;5031636;28;20092;-69
2020/12/29 04:59:32;;;;;;;0.52;0.50;;;0.70;99.90;;;;;;5031563;28;20168;-69
2020/12/29 05:01:58;;;;;;;0.98;0.60;;;0.70;99.90;;;;;;5030616;28;20092;-69
2020/12/29 05:04:24;;;;;;;0.55;0.38;;;0.70;99.90;;;;;;5031058;28;20663;-69
2020/12/29 05:06:51;;;;;;;1.27;0.60;;;0.50;99.90;;;;;;5032191;28;20070;-69
2020/12/29 05:09:21;;;;;;;0.75;0.70;;;0.70;99.90;;;;;;5028208;28;20082;-69
2020/12/29 05:11:47;;;;;;;0.60;0.60;;;0.60;99.90;;;;;;5032529;28;20152;-69
2020/12/29 05:14:12;;;;;;;0.80;0.50;;;0.50;99.90;;;;;;5035007;28;20184;-69
2020/12/29 05:16:39;;;;;;;0.65;0.50;;;0.70;99.90;;;;;;5031602;28;20089;-69
2020/12/29 05:19:15;;;;;;;0.75;0.70;;;0.80;99.90;;;;;;5029951;28;20082;-69
2020/12/29 05:21:42;;;;;;;0.45;0.45;;;1.10;99.90;;;;;;5028365;28;20109;-69
2020/12/29 05:24:19;;;;;;;0.40;0.40;;;1.30;99.90;;;;;;5028893;28;20470;-69
2020/12/29 05:26:48;;;;;;;0.77;0.50;;;1.10;99.90;;;;;;5027444;28;20448;-69
2020/12/29 05:29:14;;;;;;;0.73;0.57;;;0.70;99.90;;;;;;5029109;28;20522;-70
2020/12/29 05:31:42;;;;;;;1.45;0.65;;;0.70;99.90;;;;;;5028414;28;20180;-69
2020/12/29 05:34:16;;;;;;;0.60;0.45;;;0.90;99.90;;;;;;5030060;28;20155;-69
2020/12/29 05:36:43;;;;;;;1.48;0.70;;;1.10;99.90;;;;;;5038134;28;20084;-69
2020/12/29 05:39:10;;;;;;;0.90;0.77;;;1.10;99.90;;;;;;5029460;28;20089;-69
2020/12/29 05:41:41;;;;;;;1.15;0.50;;;1.00;99.90;;;;;;5031673;28;20434;-69
2020/12/29 05:44:07;;;;;;;0.57;0.40;;;0.50;99.90;;;;;;5032903;28;20148;-70
2020/12/29 05:46:33;;;;;;;0.65;0.50;;;0.50;99.90;;;;;;5033521;28;20082;-69
2020/12/29 05:49:00;;;;;;;0.63;0.60;;;0.60;99.90;;;;;;5030198;28;20160;-70
2020/12/29 05:51:26;;;;;;;0.63;0.50;;;0.80;99.90;;;;;;5028179;28;20089;-69
2020/12/29 05:54:03;;;;;;;1.15;0.85;;;0.90;99.90;;;;;;5030273;28;20089;-69
2020/12/29 05:56:31;;;;;;;0.38;0.30;;;1.00;99.90;;;;;;5042843;28;20550;-69
2020/12/29 05:58:57;;;;;;;0.80;0.80;;;1.00;99.90;;;;;;5028274;28;20085;-69
2020/12/29 06:01:34;;;;;;;0.50;0.35;;;1.00;99.90;;;;;;5028812;28;20760;-69
2020/12/29 06:04:01;;;;;;;0.40;0.40;;;0.80;99.90;;;;;;5034274;28;20100;-70
2020/12/29 06:06:28;;;;;;;0.52;0.52;;;0.60;99.90;;;;;;5033302;28;20078;-70
2020/12/29 06:08:56;;;;;;;0.80;0.70;;;0.70;99.90;;;;;;5029826;28;20489;-69
2020/12/29 06:11:24;;;;;;;1.65;0.68;;;0.20;99.90;;;;;;5029479;28;20074;-69
2020/12/29 06:13:50;;;;;;;2.83;0.60;;;0.20;99.90;;;;;;5034797;28;20191;-69
2020/12/29 06:16:19;;;;;;;0.95;0.47;;;-0.30;99.90;;;;;;5028027;28;20101;-69
2020/12/29 06:18:48;;;;;;;1.15;0.60;;;-0.30;99.90;;;;;;5030213;28;20168;-69
2020/12/29 06:21:14;;;;;;;0.60;0.60;;;-0.40;99.90;;;;;;5026443;28;20097;-69
2020/12/29 06:23:47;;;;;;;1.20;1.02;;;-1.00;99.90;;;;;;5028603;28;20122;-69
2020/12/29 06:26:18;;;;;;;0.77;0.70;;;-1.20;99.90;;;;;;5028567;28;20081;-68
2020/12/29 06:28:52;;;;;;;1.33;0.60;;;-1.10;99.90;;;;;;5029395;28;20193;-69
2020/12/29 06:31:29;;;;;;;1.55;0.90;;;-1.30;99.90;;;;;;5028178;28;20763;-68
2020/12/29 06:33:56;;;;;;;0.75;0.68;;;-1.30;99.90;;;;;;5031722;28;20107;-69
2020/12/29 06:36:25;;;;;;;9.95;3.53;;;-1.20;99.90;;;;;;5030531;28;20086;-69
2020/12/29 06:38:53;;;;;;;6.68;3.03;;;-1.20;99.90;;;;;;5029859;28;20160;-68
2020/12/29 06:41:20;;;;;;;5.15;2.38;;;-1.20;99.90;;;;;;5026830;28;20598;-69
2020/12/29 06:43:49;;;;;;;2.10;1.90;;;-1.10;99.90;;;;;;5031384;28;20180;-68
2020/12/29 06:46:16;;;;;;;1.90;1.00;;;-1.10;99.90;;;;;;5028451;28;20082;-69
2020/12/29 06:48:42;;;;;;;1.33;0.77;;;-1.20;99.90;;;;;;5027452;28;20081;-69
2020/12/29 06:51:13;;;;;;;0.60;0.40;;;-1.30;99.90;;;;;;5027843;28;20147;-69
2020/12/29 06:53:40;;;;;;;0.63;0.55;;;-1.50;99.90;;;;;;5033123;28;20562;-69
2020/12/29 06:56:13;;;;;;;0.60;0.60;;;-1.10;99.90;;;;;;5031625;28;20078;-69
2020/12/29 06:58:39;;;;;;;0.98;0.70;;;-0.80;99.90;;;;;;5030295;28;20103;-69
2020/12/29 07:01:22;;;;;;;0.70;0.57;;;-0.40;99.90;;;;;;5031651;28;20614;-69
2020/12/29 07:04:09;;;;;;;0.75;0.70;;;-0.10;99.90;;;;;;5026235;28;20196;-69
2020/12/29 07:06:36;;;;;;;1.65;0.95;;;0.20;99.90;;;;;;5028512;28;20131;-69
2020/12/29 07:09:23;;;;;;;1.55;1.20;;;0.20;99.90;;;;;;5032536;28;20553;-69
2020/12/29 07:12:06;;;;;;;1.13;0.70;;;0.30;99.90;;;;;;5028882;28;20078;-69
2020/12/29 07:14:34;;;;;;;1.40;0.80;;;-0.10;99.90;;;;;;5033221;28;20250;-69
2020/12/29 07:17:00;;;;;;;1.73;1.05;;;-0.10;99.90;;;;;;5028379;28;20091;-69
2020/12/29 07:19:27;;;;;;;1.67;1.10;;;-0.20;99.90;;;;;;5026445;28;20089;-70
2020/12/29 07:21:53;;;;;;;2.10;1.33;;;-0.30;99.90;;;;;;5036283;28;20088;-69
2020/12/29 07:24:19;;;;;;;1.45;1.08;;;-0.20;99.90;;;;;;5036929;28;20461;-70
2020/12/29 07:26:44;;;;;;;2.65;0.90;;;-0.20;99.90;;;;;;5042436;28;20200;-70
2020/12/29 07:29:10;;;;;;;1.83;1.08;;;-0.30;99.90;;;;;;5033432;28;20155;-69
2020/12/29 07:31:42;;;;;;;2.60;1.23;;;-0.20;99.90;;;;;;5029704;28;20082;-70
2020/12/29 07:34:13;;;;;;;1.52;0.98;;;-0.10;99.90;;;;;;5031368;28;20100;-69
2020/12/29 07:36:45;;;;;;;1.80;1.30;;;0.10;99.90;;;;;;5040490;28;20139;-69
2020/12/29 07:39:15;;;;;;;2.47;1.90;;;0.10;99.90;;;;;;5031266;28;21717;-70
2020/12/29 07:41:41;;;;;;;3.30;1.90;;;0.20;99.90;;;;;;5041810;28;20084;-69
2020/12/29 07:44:07;;;;;;;2.63;1.90;;;0.20;99.90;;;;;;5043297;28;20132;-69
2020/12/29 07:46:33;;;;;;;1.30;1.10;;;0.40;99.90;;;;;;5049049;28;20110;-69
2020/12/29 07:49:03;;;;;;;3.03;1.80;;;0.60;99.90;;;;;;5037955;28;20119;-69
2020/12/29 07:51:28;;;;;;;2.05;1.38;;;0.70;99.90;;;;;;5045809;28;20077;-69
2020/12/29 07:53:54;;;;;;;1.88;1.25;;;0.70;99.90;;;;;;5042702;28;20097;-69
2020/12/29 07:56:20;;;;;;;1.77;1.23;;;0.60;99.90;;;;;;5049400;28;20077;-69
2020/12/29 07:58:51;;;;;;;1.77;1.13;;;0.30;99.90;;;;;;5031053;28;20143;-69
2020/12/29 08:01:17;;;;;;;6.80;3.60;;;0.60;99.90;;;;;;5033736;28;20088;-69
2020/12/29 08:03:50;;;;;;;11.20;4.78;;;0.60;99.90;;;;;;5029047;28;20132;-70
2020/12/29 08:06:16;;;;;;;5.97;4.15;;;0.90;99.90;;;;;;5037183;28;20088;-69
2020/12/29 08:08:42;;;;;;;3.90;2.90;;;0.60;99.90;;;;;;5032227;28;20086;-70
2020/12/29 08:11:08;;;;;;;3.13;2.40;;;0.60;99.90;;;;;;5035906;28;20093;-69
2020/12/29 08:13:48;;;;;;;3.28;2.28;;;0.60;99.90;;;;;;5042939;28;20211;-70
2020/12/29 08:16:20;;;;;;;3.30;2.15;;;0.80;99.90;;;;;;5046099;28;20103;-70
2020/12/29 08:18:46;;;;;;;4.47;2.72;;;0.70;99.90;;;;;;5044153;28;20162;-68
2020/12/29 08:21:15;;;;;;;4.25;2.45;;;0.70;99.90;;;;;;5043988;28;20085;-68
2020/12/29 08:23:41;;;;;;;5.63;2.03;;;0.60;99.90;;;;;;5048288;28;20103;-70
2020/12/29 08:26:10;;;;;;;5.60;3.40;;;0.70;99.90;;;;;;5046262;28;20483;-70
2020/12/29 08:28:37;;;;;;;4.90;3.60;;;1.00;99.90;;;;;;5047927;28;20092;-69
2020/12/29 08:31:07;;;;;;;3.88;2.22;;;1.10;99.90;;;;;;5047430;28;20074;-71
2020/12/29 08:33:33;;;;;;;4.93;3.50;;;1.20;99.90;;;;;;5047754;28;20127;-70
2020/12/29 08:36:06;;;;;;;5.00;2.90;;;1.20;99.90;;;;;;5049172;28;20104;-69
2020/12/29 08:38:40;;;;;;;3.90;2.88;;;1.10;99.90;;;;;;5049450;28;20111;-68
2020/12/29 08:41:10;;;;;;;4.47;2.92;;;1.10;99.90;;;;;;5048312;28;20080;-71
2020/12/29 08:43:43;;;;;;;3.03;2.08;;;1.20;99.90;;;;;;5047959;28;20093;-70
2020/12/29 08:46:10;;;;;;;4.68;2.60;;;1.20;99.90;;;;;;5047795;28;20143;-71
2020/12/29 08:48:37;;;;;;;3.80;2.40;;;1.30;99.90;;;;;;5049396;28;20081;-68
2020/12/29 08:51:20;;;;;;;2.88;1.95;;;1.30;99.90;;;;;;5049672;28;20069;-69
2020/12/29 08:53:46;;;;;;;4.05;2.25;;;1.50;99.90;;;;;;5049322;28;20151;-72
2020/12/29 08:56:24;;;;;;;5.82;1.83;;;1.80;99.90;;;;;;5047790;28;20112;-71
2020/12/29 08:58:50;;;;;;;3.00;2.42;;;1.90;99.90;;;;;;5048875;28;20111;-73
2020/12/29 09:01:59;;;;;;;2.75;2.08;;;2.00;99.90;;;;;;5048362;28;20092;-72
2020/12/29 09:04:42;;;;;;;1.77;1.35;;;2.10;99.90;;;;;;5019032;28;20144;-72
2020/12/29 09:07:12;;;;;;;4.57;1.65;;;2.20;99.90;;;;;;5051115;28;20070;-73
2020/12/29 09:09:50;;;;;;;2.47;1.90;;;2.30;99.90;;;;;;5050699;28;20084;-72
2020/12/29 09:12:18;;;;;;;3.80;1.83;;;2.40;99.90;;;;;;5047543;28;20066;-72
2020/12/29 09:15:13;;;;;;;2.13;1.77;;;2.60;99.90;;;;;;5046368;28;20101;-71
2020/12/29 09:17:43;;;;;;;1.77;1.27;;;2.70;99.90;;;;;;5042195;28;20093;-71
2020/12/29 09:20:10;;;;;;;2.08;1.63;;;2.80;99.90;;;;;;5044691;28;20093;-72
2020/12/29 09:23:00;;;;;;;1.55;1.42;;;2.80;99.90;;;;;;5048087;28;20164;-71
2020/12/29 09:25:27;;;;;;;2.70;1.75;;;2.90;99.90;;;;;;5043539;28;20109;-73
2020/12/29 09:28:17;;;;;;;2.25;1.38;;;3.00;99.90;;;;;;5047708;28;20065;-71
2020/12/29 09:31:04;;;;;;;1.52;1.10;;;3.10;99.90;;;;;;5042304;28;20688;-72
2020/12/29 09:33:32;;;;;;;1.00;0.70;;;3.30;99.90;;;;;;5037990;28;20097;-73
2020/12/29 09:36:02;;;;;;;2.13;0.90;;;3.40;99.90;;;;;;5036620;28;20136;-73
2020/12/29 09:38:28;;;;;;;4.78;2.38;;;3.50;99.90;;;;;;5042589;28;20093;-73
2020/12/29 09:40:54;;;;;;;8.27;3.75;;;3.70;99.20;;;;;;5044387;28;20116;-71
2020/12/29 09:43:21;;;;;;;1.52;1.00;;;4.00;96.90;;;;;;5037723;28;20581;-72
2020/12/29 09:45:47;;;;;;;1.33;0.80;;;4.00;97.30;;;;;;5031480;28;20440;-72
2020/12/29 09:48:13;;;;;;;1.27;0.75;;;4.10;97.60;;;;;;5044626;28;20161;-74
2020/12/29 09:50:39;;;;;;;0.68;0.45;;;4.10;98.80;;;;;;5035928;28;20169;-72
2020/12/29 09:53:05;;;;;;;0.60;0.50;;;4.00;98.60;;;;;;5032539;28;20158;-73
2020/12/29 09:55:30;;;;;;;1.20;0.70;;;4.10;98.60;;;;;;5036310;28;20486;-71
2020/12/29 09:57:56;;;;;;;0.82;0.40;;;4.10;98.50;;;;;;5037991;28;20156;-72
2020/12/29 10:00:22;;;;;;;0.85;0.50;;;4.10;98.80;;;;;;5043268;28;20110;-72
2020/12/29 10:02:49;;;;;;;1.23;0.70;;;4.30;98.10;;;;;;5036772;28;20085;-72
2020/12/29 10:05:15;;;;;;;2.10;1.40;;;4.30;98.20;;;;;;5037716;28;20101;-72
2020/12/29 10:07:40;;;;;;;2.80;1.05;;;4.60;94.60;;;;;;5038723;28;20082;-74
2020/12/29 10:10:06;;;;;;;1.98;1.25;;;4.60;93.60;;;;;;5028226;28;20109;-72
2020/12/29 10:12:32;;;;;;;2.15;0.98;;;4.80;90.90;;;;;;5045485;28;20070;-73
2020/12/29 10:14:58;;;;;;;1.52;0.77;;;4.80;93.20;;;;;;5037949;28;20120;-73
2020/12/29 10:17:23;;;;;;;1.20;0.40;;;4.70;93.30;;;;;;5036074;28;20096;-76
2020/12/29 10:19:49;;;;;;;2.45;1.10;;;4.80;93.70;;;;;;5037439;28;20112;-75
2020/12/29 10:22:15;;;;;;;2.25;1.30;;;4.90;93.10;;;;;;5036712;28;20077;-74
2020/12/29 10:24:40;;;;;;;2.13;1.25;;;4.90;92.60;;;;;;5027558;28;20517;-76
2020/12/29 10:27:06;;;;;;;1.23;0.60;;;5.10;91.30;;;;;;5041694;28;20152;-77
2020/12/29 10:29:32;;;;;;;1.65;0.90;;;5.10;92.00;;;;;;5039186;28;20427;-73
2020/12/29 10:31:57;;;;;;;1.42;0.90;;;5.00;91.80;;;;;;5037887;28;20573;-72
2020/12/29 10:34:23;;;;;;;1.48;0.90;;;5.10;92.70;;;;;;5040465;28;20086;-73
2020/12/29 10:36:48;;;;;;;1.02;0.40;;;5.00;93.50;;;;;;5027908;28;20087;-71
2020/12/29 10:39:15;;;;;;;1.38;0.73;;;4.90;94.10;;;;;;5032250;28;20066;-73
2020/12/29 10:41:41;;;;;;;0.65;0.47;;;5.00;92.90;;;;;;5036945;28;20084;-72
2020/12/29 10:44:09;;;;;;;1.10;0.38;;;4.90;94.30;;;;;;5037764;28;20090;-74
2020/12/29 10:46:34;;;;;;;0.40;0.40;;;5.10;92.80;;;;;;5032989;28;20078;-74
2020/12/29 10:49:00;;;;;;;1.27;0.63;;;5.00;93.20;;;;;;5032145;28;20143;-72
2020/12/29 10:51:26;;;;;;;2.38;0.70;;;5.00;92.60;;;;;;5032050;28;20070;-74
2020/12/29 10:53:53;;;;;;;0.70;0.60;;;5.00;93.50;;;;;;5036789;28;20761;-71
2020/12/29 10:56:18;;;;;;;3.20;1.00;;;5.00;94.50;;;;;;5036356;28;20085;-73
2020/12/29 10:58:45;;;;;;;1.67;0.50;;;4.90;94.10;;;;;;5033656;28;20119;-72
2020/12/29 11:01:11;;;;;;;1.38;0.70;;;5.00;92.60;;;;;;5036474;28;20600;-72
2020/12/29 11:03:37;;;;;;;2.50;1.20;;;5.00;93.40;;;;;;5037991;28;20502;-75
2020/12/29 11:06:12;;;;;;;1.65;0.70;;;5.10;94.10;;;;;;5033274;28;20181;-70
2020/12/29 11:08:37;;;;;;;3.85;1.73;;;5.20;93.80;;;;;;5032482;28;20169;-74
2020/12/29 11:11:03;;;;;;;1.95;0.93;;;5.20;94.50;;;;;;5038095;28;20148;-76
2020/12/29 11:13:29;;;;;;;3.05;0.70;;;5.10;94.50;;;;;;5035387;28;20089;-73
2020/12/29 11:15:54;;;;;;;1.20;0.75;;;4.90;94.80;;;;;;5035794;28;20078;-72
2020/12/29 11:18:20;;;;;;;1.30;0.70;;;4.90;95.20;;;;;;5036706;28;20139;-71
2020/12/29 11:20:49;;;;;;;1.67;0.60;;;4.90;95.30;;;;;;5036779;28;20168;-74
2020/12/29 11:23:15;;;;;;;0.75;0.40;;;4.80;95.00;;;;;;5039504;28;20076;-73
2020/12/29 11:25:40;;;;;;;4.80;1.23;;;4.80;94.90;;;;;;5038928;28;20094;-76
2020/12/29 11:28:06;;;;;;;13.43;5.60;;;4.70;95.90;;;;;;5032839;28;20109;-72
2020/12/29 11:30:31;;;;;;;41.97;15.40;;;4.70;96.20;;;;;;5033060;28;20152;-75
2020/12/29 11:32:57;;;;;;;29.23;11.65;;;4.60;96.00;;;;;;5030242;28;20098;-76
2020/12/29 11:35:22;;;;;;;32.78;12.77;;;4.60;96.40;;;;;;5029024;28;20081;-70
2020/12/29 11:37:48;;;;;;;6.13;1.98;;;4.60;96.70;;;;;;5032180;28;20089;-73
2020/12/29 11:40:14;;;;;;;4.68;2.35;;;4.60;96.60;;;;;;5044112;28;20089;-75
2020/12/29 11:42:39;;;;;;;3.92;2.35;;;4.60;97.60;;;;;;5051985;28;20074;-74
2020/12/29 11:45:05;;;;;;;4.40;2.33;;;4.60;98.90;;;;;;5037576;28;20105;-74
2020/12/29 11:47:30;;;;;;;3.55;1.88;;;4.50;98.30;;;;;;5033184;28;20576;-74
2020/12/29 11:49:56;;;;;;;2.10;1.20;;;4.50;97.40;;;;;;5031503;28;20454;-73
2020/12/29 11:52:25;;;;;;;4.57;1.75;;;4.50;97.00;;;;;;5032733;28;20526;-73
2020/12/29 11:54:51;;;;;;;4.70;1.17;;;4.50;97.40;;;;;;5039929;28;20097;-73
2020/12/29 11:57:17;;;;;;;7.63;2.58;;;4.50;97.50;;;;;;5037459;28;20090;-72
2020/12/29 11:59:43;;;;;;;6.20;3.20;;;4.50;97.80;;;;;;5031373;28;20078;-73
2020/12/29 12:02:09;;;;;;;5.60;2.00;;;4.50;97.90;;;;;;5032674;28;20172;-71
2020/12/29 12:04:34;;;;;;;4.68;1.90;;;4.50;97.90;;;;;;5032343;28;20773;-73
2020/12/29 12:07:00;;;;;;;2.70;1.50;;;4.50;98.50;;;;;;5032749;28;20082;-73
2020/12/29 12:09:25;;;;;;;3.65;1.67;;;4.50;97.90;;;;;;5032430;28;20649;-72
2020/12/29 12:11:51;;;;;;;2.97;1.77;;;4.50;98.60;;;;;;5037656;28;20581;-74
2020/12/29 12:14:17;;;;;;;4.13;1.95;;;4.50;97.90;;;;;;5042065;28;20109;-74
2020/12/29 12:16:58;;;;;;;4.47;1.08;;;4.50;98.10;;;;;;5041043;28;20082;-76
2020/12/29 12:19:24;;;;;;;4.55;1.85;;;4.60;97.70;;;;;;5035520;28;20147;-77
2020/12/29 12:21:50;;;;;;;5.90;2.45;;;4.60;98.00;;;;;;5041318;28;20077;-77
2020/12/29 12:24:15;;;;;;;5.57;1.40;;;4.70;97.80;;;;;;5037511;28;20093;-74
2020/12/29 12:26:41;;;;;;;3.88;1.15;;;4.70;97.30;;;;;;5046081;28;20132;-75
2020/12/29 12:29:07;;;;;;;5.90;2.25;;;4.70;97.30;;;;;;5034070;28;20165;-74
2020/12/29 12:31:32;;;;;;;4.30;2.30;;;4.80;97.50;;;;;;5045156;28;20070;-75
2020/12/29 12:33:58;;;;;;;5.47;2.05;;;4.80;97.60;;;;;;5034816;28;20553;-73
2020/12/29 12:36:23;;;;;;;3.45;1.45;;;4.90;97.40;;;;;;5050775;28;20074;-73
2020/12/29 12:38:52;;;;;;;6.55;3.05;;;4.80;97.20;;;;;;5042788;28;20096;-76
2020/12/29 12:41:17;;;;;;;4.70;3.13;;;4.80;97.70;;;;;;5037903;28;20081;-76
2020/12/29 12:43:46;;;;;;;5.93;2.80;;;4.80;97.70;;;;;;5043811;28;20090;-73
2020/12/29 12:46:11;;;;;;;7.00;3.25;;;4.90;97.60;;;;;;5035994;28;20525;-73
2020/12/29 12:48:39;;;;;;;4.50;2.75;;;4.90;97.70;;;;;;5037257;28;20152;-76
2020/12/29 12:51:05;;;;;;;4.00;2.30;;;5.00;97.50;;;;;;5035885;28;20582;-74
2020/12/29 12:53:30;;;;;;;6.32;3.35;;;4.90;97.70;;;;;;5034953;28;20094;-72
2020/12/29 12:55:56;;;;;;;7.47;3.10;;;4.90;97.70;;;;;;5037263;28;20089;-74
2020/12/29 12:58:21;;;;;;;7.32;2.72;;;4.90;97.70;;;;;;5040314;28;20210;-73